Time;durP1;ratioP1;P1;durP2;ratioP2;P2;SDS_P1;SDS_P2;PMS_P1;PMS_P2;Temp;Humidity;BMP_temperature;BMP_pressure;BME280_temperature;BME280_humidity;BME280_pressure;Samples;Min_cycle;Max_cycle;Signal;HPM_P1;HPM_P2
2023/09/26 00:01:30;;;;;;;2.20;1.20;;;14.20;99.90;;;;;;4992700;28;20037;-75
2023/09/26 00:03:56;;;;;;;3.05;1.20;;;14.40;99.90;;;;;;4998992;28;20046;-75
2023/09/26 00:06:23;;;;;;;2.88;1.42;;;14.40;99.90;;;;;;5012449;28;20038;-75
2023/09/26 00:08:52;;;;;;;4.00;1.60;;;14.30;99.90;;;;;;5005993;28;20057;-75
2023/09/26 00:11:18;;;;;;;3.67;1.40;;;14.30;99.90;;;;;;5002992;28;20030;-75
2023/09/26 00:13:44;;;;;;;5.25;1.08;;;14.40;99.90;;;;;;5009546;28;20045;-75
2023/09/26 00:16:10;;;;;;;3.10;1.30;;;14.50;99.90;;;;;;5012160;28;20392;-75
2023/09/26 00:18:37;;;;;;;4.47;1.33;;;14.40;99.90;;;;;;5012180;28;20140;-74
2023/09/26 00:21:03;;;;;;;3.22;1.50;;;14.40;99.90;;;;;;5012580;28;20380;-75
2023/09/26 00:23:29;;;;;;;4.05;1.55;;;14.70;99.90;;;;;;5006042;28;20132;-75
2023/09/26 00:25:55;;;;;;;5.88;1.70;;;14.80;99.90;;;;;;5011674;28;20038;-75
2023/09/26 00:28:21;;;;;;;3.67;1.33;;;14.70;99.90;;;;;;5002946;28;20037;-75
2023/09/26 00:30:47;;;;;;;2.78;1.05;;;14.70;99.90;;;;;;5005830;28;20503;-75
2023/09/26 00:33:12;;;;;;;4.65;1.38;;;14.60;99.90;;;;;;5009392;28;20064;-75
2023/09/26 00:35:38;;;;;;;3.65;1.52;;;14.50;99.90;;;;;;5011500;28;20022;-75
2023/09/26 00:38:04;;;;;;;3.15;1.48;;;14.40;99.90;;;;;;5009970;28;20169;-75
2023/09/26 00:40:29;;;;;;;3.33;1.90;;;14.30;99.90;;;;;;5011237;28;20030;-75
2023/09/26 00:42:59;;;;;;;3.25;1.50;;;14.20;99.90;;;;;;5011568;28;20042;-75
2023/09/26 00:45:26;;;;;;;4.00;1.25;;;14.10;99.90;;;;;;5010090;28;20150;-75
2023/09/26 00:47:52;;;;;;;9.00;1.67;;;14.10;99.90;;;;;;5011908;28;20487;-75
2023/09/26 00:50:22;;;;;;;2.17;1.10;;;14.20;99.90;;;;;;5012190;28;20034;-75
2023/09/26 00:52:53;;;;;;;3.55;1.77;;;14.20;99.90;;;;;;5010897;28;20510;-75
2023/09/26 00:55:22;;;;;;;4.50;1.55;;;14.30;99.90;;;;;;5014044;28;20072;-75
2023/09/26 00:57:48;;;;;;;5.05;1.58;;;14.50;99.90;;;;;;5014766;28;20049;-75
2023/09/26 01:00:16;;;;;;;3.15;1.63;;;14.50;99.90;;;;;;5004514;28;20485;-75
2023/09/26 01:02:43;;;;;;;4.90;1.42;;;14.40;99.90;;;;;;5008420;28;20030;-75
2023/09/26 01:05:09;;;;;;;3.35;1.55;;;14.30;99.90;;;;;;5012473;28;20049;-75
2023/09/26 01:07:35;;;;;;;4.07;1.65;;;14.10;99.90;;;;;;5015330;28;20060;-75
2023/09/26 01:10:08;;;;;;;3.55;1.30;;;14.10;99.90;;;;;;5011739;28;20400;-75
2023/09/26 01:12:35;;;;;;;5.75;1.90;;;14.10;99.90;;;;;;5004862;28;20025;-75
2023/09/26 01:15:01;;;;;;;3.38;1.42;;;14.30;99.90;;;;;;5013621;28;20034;-75
2023/09/26 01:17:32;;;;;;;3.90;1.50;;;14.20;99.90;;;;;;5013438;28;20365;-76
2023/09/26 01:19:57;;;;;;;4.57;1.75;;;14.20;99.90;;;;;;5011295;28;20481;-74
2023/09/26 01:22:27;;;;;;;3.75;1.70;;;14.30;99.90;;;;;;5014452;28;20034;-75
2023/09/26 01:24:52;;;;;;;3.00;1.40;;;14.30;99.90;;;;;;5012718;28;20038;-75
2023/09/26 01:27:19;;;;;;;4.45;2.08;;;14.30;99.90;;;;;;5001697;28;20041;-75
2023/09/26 01:29:48;;;;;;;4.40;1.63;;;14.30;99.90;;;;;;4995575;28;20027;-75
2023/09/26 01:32:13;;;;;;;4.95;1.70;;;14.20;99.90;;;;;;5001101;28;20489;-75
2023/09/26 01:34:39;;;;;;;5.95;1.77;;;14.20;99.90;;;;;;5011481;28;20036;-75
2023/09/26 01:37:07;;;;;;;2.80;1.42;;;14.20;99.90;;;;;;5014317;28;20088;-75
2023/09/26 01:39:32;;;;;;;5.25;1.58;;;14.40;99.90;;;;;;5013977;28;20057;-75
2023/09/26 01:41:58;;;;;;;3.28;1.40;;;14.40;99.90;;;;;;5011556;28;20115;-75
2023/09/26 01:44:24;;;;;;;4.57;2.22;;;14.50;99.90;;;;;;5012656;28;20030;-75
2023/09/26 01:46:50;;;;;;;5.07;1.65;;;14.50;99.90;;;;;;5014998;28;20029;-75
2023/09/26 01:49:15;;;;;;;3.97;1.70;;;14.30;99.90;;;;;;5014715;28;20036;-75
2023/09/26 01:51:41;;;;;;;3.83;1.83;;;14.20;99.90;;;;;;5011446;28;20108;-75
2023/09/26 01:54:07;;;;;;;3.20;1.35;;;14.20;99.90;;;;;;5011056;28;20384;-75
2023/09/26 01:56:32;;;;;;;2.70;1.38;;;13.90;99.90;;;;;;5014130;28;20073;-74
2023/09/26 01:58:59;;;;;;;4.43;1.73;;;13.90;99.90;;;;;;5013141;28;20046;-75
2023/09/26 02:01:25;;;;;;;3.70;1.80;;;13.90;99.90;;;;;;5013746;28;20034;-75
2023/09/26 02:03:50;;;;;;;3.00;1.77;;;13.90;99.90;;;;;;5006485;28;20436;-75
2023/09/26 02:06:16;;;;;;;5.40;1.95;;;13.90;99.90;;;;;;4994283;28;20038;-75
2023/09/26 02:08:42;;;;;;;3.50;1.48;;;13.90;99.90;;;;;;5005753;28;20033;-75
2023/09/26 02:11:08;;;;;;;4.60;1.50;;;13.90;99.90;;;;;;5013894;28;20030;-75
2023/09/26 02:13:33;;;;;;;5.32;1.65;;;13.80;99.90;;;;;;5007801;28;20511;-75
2023/09/26 02:16:00;;;;;;;3.33;1.50;;;13.80;99.90;;;;;;4994549;28;20060;-75
2023/09/26 02:18:26;;;;;;;4.55;1.90;;;13.80;99.90;;;;;;4993734;28;20026;-74
2023/09/26 02:20:52;;;;;;;4.40;1.90;;;13.80;99.90;;;;;;4993798;28;20389;-75
2023/09/26 02:23:19;;;;;;;4.20;1.85;;;13.80;99.90;;;;;;5002042;28;20172;-75
2023/09/26 02:25:51;;;;;;;3.42;1.52;;;13.80;99.90;;;;;;5012765;28;20029;-75
2023/09/26 02:28:18;;;;;;;6.72;1.92;;;13.70;99.90;;;;;;5013520;28;20029;-75
2023/09/26 02:30:43;;;;;;;4.30;1.70;;;13.70;99.90;;;;;;5013821;28;20034;-75
2023/09/26 02:33:09;;;;;;;3.75;1.60;;;13.90;99.90;;;;;;5009957;28;20056;-75
2023/09/26 02:35:35;;;;;;;3.03;1.20;;;13.80;99.90;;;;;;4993813;28;20404;-75
2023/09/26 02:38:01;;;;;;;3.50;1.70;;;13.70;99.90;;;;;;4993712;28;20022;-74
2023/09/26 02:40:26;;;;;;;4.65;1.58;;;13.80;99.90;;;;;;4993858;28;20098;-75
2023/09/26 02:42:52;;;;;;;3.65;1.77;;;13.80;99.90;;;;;;5003734;28;20034;-75
2023/09/26 02:45:18;;;;;;;5.10;2.00;;;13.80;99.90;;;;;;5011598;28;20483;-75
2023/09/26 02:47:44;;;;;;;3.40;1.58;;;13.70;99.90;;;;;;5013627;28;20148;-75
2023/09/26 02:50:11;;;;;;;3.60;1.60;;;13.90;99.90;;;;;;5013464;28;20514;-75
2023/09/26 02:52:40;;;;;;;4.75;1.67;;;13.90;99.90;;;;;;5010945;28;20049;-75
2023/09/26 02:55:07;;;;;;;3.40;1.70;;;14.00;99.90;;;;;;4998756;28;20089;-75
2023/09/26 02:57:34;;;;;;;5.18;2.20;;;14.10;99.90;;;;;;4994661;28;20076;-75
2023/09/26 03:00:00;;;;;;;4.25;1.67;;;14.20;99.90;;;;;;5003119;28;20037;-75
2023/09/26 03:02:25;;;;;;;4.38;1.77;;;14.20;99.90;;;;;;5002753;28;20037;-75
2023/09/26 03:04:52;;;;;;;4.57;1.75;;;14.20;99.90;;;;;;5000826;28;20065;-74
2023/09/26 03:07:17;;;;;;;6.72;2.05;;;14.30;99.90;;;;;;5006404;28;20021;-75
2023/09/26 03:09:45;;;;;;;2.95;1.40;;;14.10;99.90;;;;;;4988266;28;20034;-75
2023/09/26 03:12:11;;;;;;;3.35;1.55;;;14.10;99.90;;;;;;5004778;28;20081;-75
2023/09/26 03:14:36;;;;;;;3.78;1.77;;;14.00;99.90;;;;;;5008505;28;20038;-75
2023/09/26 03:17:05;;;;;;;4.43;1.85;;;13.90;99.90;;;;;;5000757;28;20029;-75
2023/09/26 03:19:31;;;;;;;3.90;1.83;;;13.70;99.90;;;;;;5003680;28;20116;-75
2023/09/26 03:21:56;;;;;;;3.65;1.70;;;13.60;99.90;;;;;;5001470;28;20486;-75
2023/09/26 03:24:22;;;;;;;4.47;1.80;;;13.60;99.90;;;;;;5023388;28;20033;-75
2023/09/26 03:26:48;;;;;;;4.95;1.60;;;13.50;99.90;;;;;;5025657;28;20033;-75
2023/09/26 03:29:14;;;;;;;5.90;1.95;;;13.60;99.90;;;;;;5018198;28;20116;-75
2023/09/26 03:31:44;;;;;;;3.55;1.63;;;13.70;99.90;;;;;;5008305;28;20436;-75
2023/09/26 03:34:10;;;;;;;4.32;2.05;;;13.50;99.90;;;;;;5006837;28;20026;-75
2023/09/26 03:36:36;;;;;;;4.10;1.80;;;13.40;99.90;;;;;;5008190;28;20030;-75
2023/09/26 03:39:03;;;;;;;4.80;2.10;;;13.40;99.90;;;;;;5007269;28;20504;-75
2023/09/26 03:41:30;;;;;;;3.95;1.92;;;13.50;99.90;;;;;;5008661;28;20022;-75
2023/09/26 03:43:55;;;;;;;4.88;2.28;;;13.60;99.90;;;;;;5006956;28;20099;-75
2023/09/26 03:46:21;;;;;;;4.32;1.48;;;13.70;99.90;;;;;;5008277;28;20038;-75
2023/09/26 03:48:49;;;;;;;2.78;1.65;;;13.50;99.90;;;;;;5001405;28;20492;-75
2023/09/26 03:51:15;;;;;;;4.13;2.17;;;13.40;99.90;;;;;;5008394;28;20048;-75
2023/09/26 03:53:42;;;;;;;4.65;2.03;;;13.30;99.90;;;;;;5006399;28;20030;-75
2023/09/26 03:56:08;;;;;;;5.85;2.10;;;13.40;99.90;;;;;;5008365;28;20603;-74
2023/09/26 03:58:35;;;;;;;7.22;1.80;;;13.50;99.90;;;;;;5002365;28;20104;-75
2023/09/26 04:01:16;;;;;;;4.68;1.90;;;13.80;99.90;;;;;;5004866;28;20034;-75
2023/09/26 04:03:46;;;;;;;7.40;2.03;;;13.60;99.90;;;;;;4989808;28;20097;-75
2023/09/26 04:06:12;;;;;;;11.98;2.15;;;13.60;99.90;;;;;;5002595;28;20605;-75
2023/09/26 04:08:38;;;;;;;4.00;1.77;;;13.60;99.90;;;;;;5003116;28;20846;-75
2023/09/26 04:11:04;;;;;;;4.47;2.08;;;13.60;99.90;;;;;;5004465;28;20034;-75
2023/09/26 04:13:29;;;;;;;5.05;1.98;;;13.60;99.90;;;;;;5004838;28;20022;-75
2023/09/26 04:15:55;;;;;;;3.72;1.52;;;13.70;99.90;;;;;;4988545;28;20042;-75
2023/09/26 04:18:22;;;;;;;4.40;2.15;;;13.70;99.90;;;;;;4985692;28;20601;-75
2023/09/26 04:20:49;;;;;;;3.28;1.48;;;13.80;99.90;;;;;;5002405;28;20084;-75
2023/09/26 04:23:15;;;;;;;5.97;2.20;;;13.80;99.90;;;;;;5002095;28;20677;-75
2023/09/26 04:25:41;;;;;;;4.05;1.80;;;13.80;99.90;;;;;;5003229;28;20029;-75
2023/09/26 04:28:07;;;;;;;6.53;1.65;;;13.80;99.90;;;;;;5005415;28;20092;-75
2023/09/26 04:30:40;;;;;;;4.47;2.22;;;13.50;99.90;;;;;;5008083;28;20033;-75
2023/09/26 04:33:07;;;;;;;3.65;1.67;;;13.30;99.90;;;;;;5006979;28;20120;-75
2023/09/26 04:35:33;;;;;;;4.93;2.10;;;13.30;99.90;;;;;;5008700;28;20553;-75
2023/09/26 04:37:59;;;;;;;4.22;1.80;;;13.30;99.90;;;;;;5000933;28;20029;-75
2023/09/26 04:40:25;;;;;;;6.30;2.30;;;13.40;99.90;;;;;;4989809;28;20062;-75
2023/09/26 04:42:52;;;;;;;4.65;2.00;;;13.50;99.90;;;;;;5008224;28;20096;-75
2023/09/26 04:45:17;;;;;;;6.65;2.47;;;13.50;99.90;;;;;;5008761;28;20026;-75
2023/09/26 04:47:43;;;;;;;4.75;2.10;;;13.50;99.90;;;;;;5003515;28;20045;-75
2023/09/26 04:50:09;;;;;;;7.80;2.65;;;13.40;99.90;;;;;;5007809;28;20022;-75
2023/09/26 04:52:38;;;;;;;5.68;1.98;;;13.40;99.90;;;;;;5007078;28;20034;-75
2023/09/26 04:55:05;;;;;;;5.45;2.22;;;13.40;99.90;;;;;;5007981;28;20053;-75
2023/09/26 04:57:30;;;;;;;3.80;1.85;;;13.50;99.90;;;;;;5005165;28;20068;-75
2023/09/26 04:59:56;;;;;;;3.60;1.70;;;13.30;99.90;;;;;;5008204;28;20034;-75
2023/09/26 05:02:22;;;;;;;4.90;1.67;;;13.20;99.90;;;;;;5003168;28;20137;-74
2023/09/26 05:04:50;;;;;;;4.32;1.80;;;13.20;99.90;;;;;;4989406;28;20437;-75
2023/09/26 05:07:16;;;;;;;3.63;1.73;;;13.00;99.90;;;;;;4989219;28;20589;-75
2023/09/26 05:09:41;;;;;;;3.65;1.70;;;13.00;99.90;;;;;;5006027;28;20148;-75
2023/09/26 05:12:07;;;;;;;3.63;1.88;;;12.90;99.90;;;;;;5004891;28;20056;-75
2023/09/26 05:14:33;;;;;;;3.47;1.65;;;12.90;99.90;;;;;;5009591;28;20041;-75
2023/09/26 05:16:59;;;;;;;2.92;1.73;;;12.90;99.90;;;;;;5012460;28;20026;-76
2023/09/26 05:19:24;;;;;;;6.63;1.83;;;12.90;99.90;;;;;;5011260;28;20105;-75
2023/09/26 05:21:51;;;;;;;4.13;2.22;;;13.00;99.90;;;;;;5006981;28;20121;-75
2023/09/26 05:24:17;;;;;;;4.15;2.25;;;13.10;99.90;;;;;;5008911;28;20072;-74
2023/09/26 05:26:43;;;;;;;3.92;1.92;;;13.20;99.90;;;;;;5007406;28;20069;-74
2023/09/26 05:29:09;;;;;;;5.25;2.22;;;13.20;99.90;;;;;;5002430;28;20034;-74
2023/09/26 05:31:35;;;;;;;3.83;2.10;;;13.30;99.90;;;;;;5006490;28;20116;-75
2023/09/26 05:34:00;;;;;;;5.60;2.30;;;13.30;99.90;;;;;;5009829;28;20029;-75
2023/09/26 05:36:26;;;;;;;4.50;2.38;;;13.30;99.90;;;;;;5010929;28;20061;-73
2023/09/26 05:38:52;;;;;;;5.38;2.22;;;13.30;99.90;;;;;;5011026;28;20042;-75
2023/09/26 05:41:17;;;;;;;6.07;2.17;;;13.60;99.90;;;;;;5010024;28;20021;-75
2023/09/26 05:43:43;;;;;;;4.90;2.35;;;13.70;99.90;;;;;;5008388;28;20104;-75
2023/09/26 05:46:09;;;;;;;4.13;2.08;;;13.50;99.90;;;;;;5008080;28;20030;-74
2023/09/26 05:48:36;;;;;;;6.63;2.22;;;13.60;99.90;;;;;;5009398;28;20045;-74
2023/09/26 05:51:03;;;;;;;5.45;1.85;;;13.60;99.90;;;;;;5002879;28;20026;-74
2023/09/26 05:53:29;;;;;;;3.63;1.88;;;13.80;99.90;;;;;;5005107;28;20384;-74
2023/09/26 05:55:55;;;;;;;6.68;2.50;;;13.70;99.90;;;;;;4986885;28;20029;-74
2023/09/26 05:58:21;;;;;;;6.20;2.65;;;13.80;99.90;;;;;;5004157;28;20050;-74
2023/09/26 06:00:48;;;;;;;4.60;2.05;;;13.90;99.90;;;;;;5007279;28;20034;-73
2023/09/26 06:03:17;;;;;;;4.53;2.28;;;14.00;99.90;;;;;;5007624;28;20036;-73
2023/09/26 06:05:43;;;;;;;4.45;2.10;;;14.10;99.90;;;;;;5005629;28;20033;-75
2023/09/26 06:08:09;;;;;;;4.30;2.15;;;14.10;99.90;;;;;;5006606;28;20022;-75
2023/09/26 06:10:35;;;;;;;4.57;2.38;;;14.20;99.90;;;;;;5006294;28;20065;-75
2023/09/26 06:13:01;;;;;;;4.45;1.75;;;14.20;99.90;;;;;;5008136;28;20030;-75
2023/09/26 06:15:27;;;;;;;4.50;2.00;;;14.20;99.90;;;;;;5007500;28;20096;-75
2023/09/26 06:18:00;;;;;;;6.60;2.63;;;14.20;99.90;;;;;;4999827;28;20039;-76
2023/09/26 06:20:29;;;;;;;5.63;2.33;;;14.20;99.90;;;;;;4992628;28;20029;-76
2023/09/26 06:22:58;;;;;;;5.90;2.53;;;14.20;99.90;;;;;;5006918;28;20042;-75
2023/09/26 06:25:24;;;;;;;7.07;2.47;;;14.20;99.90;;;;;;5008416;28;20377;-75
2023/09/26 06:27:51;;;;;;;4.60;2.08;;;14.20;99.90;;;;;;5009430;28;20025;-75
2023/09/26 06:30:16;;;;;;;4.25;2.40;;;14.20;99.90;;;;;;5009525;28;20030;-75
2023/09/26 06:32:42;;;;;;;4.72;2.80;;;14.20;99.90;;;;;;5008502;28;20036;-75
2023/09/26 06:35:08;;;;;;;5.90;2.40;;;14.20;99.90;;;;;;5008969;28;20629;-75
2023/09/26 06:37:34;;;;;;;8.35;2.55;;;14.20;99.90;;;;;;5008825;28;20035;-75
2023/09/26 06:40:04;;;;;;;3.72;2.00;;;14.00;99.90;;;;;;5008802;28;20085;-75
2023/09/26 06:42:30;;;;;;;5.85;2.30;;;14.10;99.90;;;;;;5007170;28;20611;-75
2023/09/26 06:44:57;;;;;;;6.07;2.60;;;14.40;99.90;;;;;;5008403;28;20410;-75
2023/09/26 06:47:24;;;;;;;5.90;2.47;;;14.40;99.90;;;;;;5009102;28;20033;-75
2023/09/26 06:49:49;;;;;;;4.07;2.15;;;14.40;99.90;;;;;;5008435;28;20088;-75
2023/09/26 06:52:15;;;;;;;4.07;2.10;;;14.50;99.90;;;;;;5008477;28;20034;-74
2023/09/26 06:54:41;;;;;;;5.68;2.00;;;14.50;99.90;;;;;;5005013;28;20029;-74
2023/09/26 06:57:09;;;;;;;5.78;2.28;;;14.50;99.90;;;;;;5008247;28;20080;-74
2023/09/26 06:59:35;;;;;;;5.45;2.45;;;14.50;99.90;;;;;;5007752;28;20046;-75
2023/09/26 07:02:01;;;;;;;4.68;2.70;;;14.40;99.90;;;;;;5007695;28;20056;-75
2023/09/26 07:04:27;;;;;;;4.60;2.63;;;14.40;99.90;;;;;;5006691;28;20125;-75
2023/09/26 07:06:53;;;;;;;4.30;2.30;;;14.30;99.90;;;;;;5008507;28;20113;-74
2023/09/26 07:09:20;;;;;;;3.75;2.10;;;14.40;99.90;;;;;;5008700;28;20026;-73
2023/09/26 07:11:47;;;;;;;6.65;2.67;;;14.50;99.90;;;;;;5008246;28;20054;-74
2023/09/26 07:14:13;;;;;;;6.28;1.90;;;14.50;99.90;;;;;;5007436;28;20034;-75
2023/09/26 07:16:39;;;;;;;5.68;2.38;;;14.60;99.90;;;;;;5007815;28;20041;-75
2023/09/26 07:19:04;;;;;;;4.40;2.25;;;14.60;99.90;;;;;;5008559;28;20037;-75
2023/09/26 07:21:30;;;;;;;4.38;2.08;;;14.50;99.90;;;;;;5008074;28;20034;-75
2023/09/26 07:23:56;;;;;;;5.75;2.60;;;14.50;99.90;;;;;;5006822;28;20046;-75
2023/09/26 07:26:22;;;;;;;5.45;2.72;;;14.60;99.90;;;;;;5008070;28;20032;-74
2023/09/26 07:28:49;;;;;;;4.90;3.05;;;14.60;99.90;;;;;;5007868;28;20476;-74
2023/09/26 07:31:17;;;;;;;5.40;2.30;;;14.50;99.90;;;;;;5008388;28;20068;-75
2023/09/26 07:33:43;;;;;;;6.97;2.60;;;14.50;99.90;;;;;;5006072;28;20083;-76
2023/09/26 07:36:09;;;;;;;7.40;2.42;;;14.60;99.90;;;;;;5007255;28;20041;-74
2023/09/26 07:38:35;;;;;;;4.43;2.20;;;14.50;99.90;;;;;;5004668;28;20038;-75
2023/09/26 07:41:02;;;;;;;6.90;2.85;;;14.60;99.90;;;;;;4998372;28;20030;-74
2023/09/26 07:43:32;;;;;;;5.38;2.70;;;14.70;99.90;;;;;;5003218;28;20073;-75
2023/09/26 07:46:10;;;;;;;5.28;2.45;;;14.70;99.90;;;;;;5007822;28;20048;-75
2023/09/26 07:48:37;;;;;;;8.82;2.88;;;14.90;99.90;;;;;;5005623;28;20464;-75
2023/09/26 07:51:04;;;;;;;4.88;2.22;;;15.00;99.90;;;;;;5005226;28;20026;-75
2023/09/26 07:53:30;;;;;;;5.53;2.20;;;14.90;99.90;;;;;;5006494;28;20380;-74
2023/09/26 07:55:58;;;;;;;5.95;3.00;;;14.90;99.90;;;;;;5003901;28;20053;-74
2023/09/26 07:58:25;;;;;;;7.95;2.63;;;14.90;99.90;;;;;;5003989;28;20045;-74
2023/09/26 08:00:53;;;;;;;5.45;2.72;;;14.90;99.90;;;;;;5006939;28;20551;-75
2023/09/26 08:03:19;;;;;;;7.55;2.75;;;15.00;99.90;;;;;;5008416;28;20037;-75
2023/09/26 08:05:45;;;;;;;6.97;3.13;;;15.00;99.90;;;;;;5011131;28;20026;-75
2023/09/26 08:08:11;;;;;;;8.80;2.63;;;15.10;99.90;;;;;;5011308;28;20026;-73
2023/09/26 08:10:40;;;;;;;7.32;3.42;;;15.20;99.90;;;;;;5011040;28;20025;-73
2023/09/26 08:13:06;;;;;;;6.60;2.60;;;15.30;99.90;;;;;;5006752;28;20388;-74
2023/09/26 08:15:34;;;;;;;6.43;3.08;;;15.40;99.90;;;;;;5005598;28;20176;-74
2023/09/26 08:18:03;;;;;;;7.85;3.05;;;15.40;99.90;;;;;;5010704;28;20657;-74
2023/09/26 08:20:29;;;;;;;4.93;2.63;;;15.40;99.90;;;;;;5010562;28;20029;-74
2023/09/26 08:22:55;;;;;;;5.82;2.70;;;15.40;99.90;;;;;;5005998;28;21371;-73
2023/09/26 08:25:20;;;;;;;5.25;2.53;;;15.50;99.90;;;;;;5009556;28;20040;-74
2023/09/26 08:27:46;;;;;;;5.15;2.47;;;15.50;99.90;;;;;;5010139;28;20010;-74
2023/09/26 08:30:12;;;;;;;5.47;2.63;;;15.50;99.90;;;;;;5010542;28;20022;-73
2023/09/26 08:32:39;;;;;;;5.43;2.72;;;15.60;99.90;;;;;;5008699;28;20029;-74
2023/09/26 08:35:06;;;;;;;7.78;2.70;;;15.70;99.90;;;;;;5006716;28;20399;-74
2023/09/26 08:37:35;;;;;;;6.30;2.65;;;15.80;99.90;;;;;;5009656;28;20420;-74
2023/09/26 08:40:11;;;;;;;8.85;3.00;;;15.80;99.90;;;;;;5010254;28;20033;-74
2023/09/26 08:42:40;;;;;;;11.23;2.65;;;15.80;99.90;;;;;;5005607;28;20030;-73
2023/09/26 08:45:07;;;;;;;11.13;3.40;;;15.90;99.90;;;;;;5009010;28;20045;-74
2023/09/26 08:47:36;;;;;;;5.57;2.97;;;16.10;99.90;;;;;;5009687;28;20026;-74
2023/09/26 08:50:02;;;;;;;6.03;2.42;;;16.10;99.90;;;;;;5010423;28;20065;-73
2023/09/26 08:52:28;;;;;;;5.30;2.22;;;16.20;99.90;;;;;;4991509;28;20053;-74
2023/09/26 08:54:54;;;;;;;6.30;2.63;;;16.10;99.90;;;;;;5006226;28;20026;-74
2023/09/26 08:57:20;;;;;;;12.10;2.60;;;16.30;99.90;;;;;;5009950;28;20026;-74
2023/09/26 08:59:49;;;;;;;6.85;2.63;;;16.30;99.90;;;;;;5010106;28;20426;-74
2023/09/26 09:02:15;;;;;;;6.20;2.80;;;16.40;99.90;;;;;;5003413;28;20031;-75
2023/09/26 09:04:45;;;;;;;9.52;3.30;;;16.50;99.90;;;;;;5009990;28;20109;-74
2023/09/26 09:07:12;;;;;;;6.85;2.67;;;16.50;99.90;;;;;;5009869;28;20507;-74
2023/09/26 09:09:58;;;;;;;6.47;2.50;;;16.70;99.90;;;;;;5010334;28;20064;-74
2023/09/26 09:12:24;;;;;;;6.00;2.85;;;16.80;99.90;;;;;;5009179;28;20041;-74
2023/09/26 09:14:50;;;;;;;8.35;3.20;;;16.80;99.90;;;;;;5010260;28;20365;-74
2023/09/26 09:17:15;;;;;;;5.03;2.38;;;16.80;99.90;;;;;;5010437;28;20057;-73
2023/09/26 09:19:45;;;;;;;6.60;3.13;;;17.10;99.90;;;;;;5009938;28;20057;-74
2023/09/26 09:22:18;;;;;;;4.93;2.72;;;17.50;99.90;;;;;;5010650;28;20140;-74
2023/09/26 09:24:53;;;;;;;6.88;2.38;;;17.60;99.90;;;;;;5010059;28;20037;-73
2023/09/26 09:27:30;;;;;;;5.80;2.55;;;17.80;99.90;;;;;;5009981;28;20050;-74
2023/09/26 09:30:19;;;;;;;10.57;2.97;;;18.00;99.90;;;;;;5009527;28;20101;-74
2023/09/26 09:32:44;;;;;;;4.82;2.42;;;18.20;99.90;;;;;;5008647;28;20583;-74
2023/09/26 09:35:14;;;;;;;7.72;2.75;;;18.00;99.90;;;;;;5009353;28;20030;-74
2023/09/26 09:37:45;;;;;;;5.60;2.60;;;17.90;99.90;;;;;;5008788;28;20032;-74
2023/09/26 09:40:23;;;;;;;4.32;2.47;;;18.20;99.90;;;;;;5009354;28;20033;-74
2023/09/26 09:42:49;;;;;;;6.32;2.88;;;18.30;99.90;;;;;;5006279;28;20064;-74
2023/09/26 09:45:16;;;;;;;13.40;3.08;;;18.30;99.90;;;;;;5006045;28;20092;-73
2023/09/26 09:47:45;;;;;;;5.25;2.70;;;18.40;99.90;;;;;;4995639;28;20042;-72
2023/09/26 09:50:13;;;;;;;5.43;2.90;;;18.40;99.90;;;;;;5007486;28;20026;-72
2023/09/26 09:52:42;;;;;;;6.05;2.10;;;18.40;99.90;;;;;;4990458;28;20022;-72
2023/09/26 09:55:13;;;;;;;5.47;2.97;;;18.40;99.90;;;;;;4990098;28;20032;-72
2023/09/26 09:57:45;;;;;;;5.65;2.58;;;18.30;99.90;;;;;;5004565;28;20567;-72
2023/09/26 10:00:14;;;;;;;4.78;2.55;;;18.30;99.90;;;;;;4991974;28;20480;-74
2023/09/26 10:02:40;;;;;;;7.15;2.30;;;18.40;99.90;;;;;;5008512;28;20678;-73
2023/09/26 10:05:12;;;;;;;5.07;2.65;;;18.30;99.90;;;;;;4991643;28;20026;-74
2023/09/26 10:07:40;;;;;;;5.25;2.85;;;18.40;99.90;;;;;;4992082;28;20366;-72
2023/09/26 10:10:09;;;;;;;4.50;2.50;;;18.50;99.90;;;;;;5009674;28;20021;-73
2023/09/26 10:12:36;;;;;;;6.85;2.90;;;18.50;99.90;;;;;;5007299;28;20595;-73
2023/09/26 10:15:03;;;;;;;6.15;2.63;;;18.70;99.90;;;;;;5005344;28;20480;-73
2023/09/26 10:17:29;;;;;;;5.78;2.65;;;18.80;99.90;;;;;;5005546;28;20411;-73
2023/09/26 10:19:56;;;;;;;7.35;2.88;;;18.80;99.90;;;;;;5009198;28;20032;-71
2023/09/26 10:22:32;;;;;;;7.10;2.95;;;19.00;99.90;;;;;;5000958;28;20054;-71
2023/09/26 10:25:00;;;;;;;6.85;2.25;;;19.20;99.90;;;;;;5006793;28;20036;-73
2023/09/26 10:27:32;;;;;;;4.75;2.72;;;19.10;99.90;;;;;;5009063;28;20022;-73
2023/09/26 10:29:59;;;;;;;9.50;2.50;;;19.40;99.90;;;;;;5009197;28;20029;-72
2023/09/26 10:32:36;;;;;;;7.28;2.70;;;19.60;99.90;;;;;;4987449;28;20520;-73
2023/09/26 10:35:14;;;;;;;5.60;2.78;;;19.70;99.90;;;;;;4990970;28;20110;-73
2023/09/26 10:37:48;;;;;;;4.78;2.75;;;19.60;99.90;;;;;;4985533;28;20040;-72
2023/09/26 10:40:17;;;;;;;7.57;2.70;;;19.60;99.90;;;;;;4997268;28;20429;-72
2023/09/26 10:42:48;;;;;;;6.00;2.47;;;19.80;99.90;;;;;;4988919;28;20146;-72
2023/09/26 10:45:15;;;;;;;6.82;2.58;;;20.00;99.90;;;;;;4989767;28;20026;-72
2023/09/26 10:47:41;;;;;;;5.25;2.85;;;20.20;99.90;;;;;;5006162;28;20121;-72
2023/09/26 10:50:09;;;;;;;6.95;2.50;;;20.30;99.90;;;;;;4985211;28;20528;-72
2023/09/26 10:52:35;;;;;;;8.07;2.35;;;20.30;99.90;;;;;;4987179;28;20027;-72
2023/09/26 10:55:03;;;;;;;7.28;2.78;;;20.60;99.90;;;;;;4989017;28;20109;-74
2023/09/26 10:57:29;;;;;;;5.05;2.78;;;20.60;99.90;;;;;;4986066;28;20022;-74
2023/09/26 10:59:56;;;;;;;7.43;2.83;;;20.70;99.90;;;;;;4988717;28;20034;-73
2023/09/26 11:02:22;;;;;;;5.18;2.65;;;20.60;99.90;;;;;;5008890;28;20040;-72
2023/09/26 11:04:48;;;;;;;8.27;2.13;;;20.60;99.90;;;;;;5008714;28;20612;-72
2023/09/26 11:07:15;;;;;;;6.05;2.55;;;20.70;99.90;;;;;;5007944;28;20025;-72
2023/09/26 11:09:42;;;;;;;6.07;2.50;;;20.90;99.90;;;;;;5006298;28;20030;-72
2023/09/26 11:12:08;;;;;;;7.80;2.28;;;21.00;99.90;;;;;;5005892;28;20022;-73
2023/09/26 11:14:35;;;;;;;4.65;2.55;;;21.30;99.90;;;;;;5004900;28;20038;-73
2023/09/26 11:17:00;;;;;;;7.88;2.53;;;21.40;99.90;;;;;;4997454;28;20037;-73
2023/09/26 11:19:27;;;;;;;5.05;2.90;;;21.30;99.90;;;;;;4988858;28;20034;-73
2023/09/26 11:21:54;;;;;;;9.27;2.35;;;21.10;99.90;;;;;;4988685;28;20030;-73
2023/09/26 11:24:30;;;;;;;8.90;2.30;;;20.90;99.80;;;;;;4988620;28;20034;-72
2023/09/26 11:26:58;;;;;;;5.15;2.40;;;21.00;99.90;;;;;;5000295;28;20025;-72
2023/09/26 11:29:24;;;;;;;3.50;1.92;;;21.20;99.90;;;;;;5006987;28;20843;-72
2023/09/26 11:31:52;;;;;;;4.82;2.58;;;21.50;99.90;;;;;;5007983;28;20065;-72
2023/09/26 11:34:19;;;;;;;5.38;2.60;;;21.70;99.90;;;;;;5008408;28;20018;-72
2023/09/26 11:36:47;;;;;;;7.93;2.45;;;21.90;99.90;;;;;;5005454;28;20157;-72
2023/09/26 11:39:20;;;;;;;4.53;2.22;;;22.00;99.90;;;;;;5006272;28;20038;-73
2023/09/26 11:41:47;;;;;;;6.00;2.65;;;22.00;99.90;;;;;;5008024;28;20038;-73
2023/09/26 11:44:14;;;;;;;5.10;2.38;;;22.00;99.30;;;;;;5008021;28;20044;-72
2023/09/26 11:46:47;;;;;;;6.30;2.70;;;22.10;99.90;;;;;;5006589;28;20025;-73
2023/09/26 11:49:15;;;;;;;6.38;2.45;;;22.00;99.10;;;;;;5005705;28;20029;-72
2023/09/26 11:51:41;;;;;;;4.57;2.55;;;21.60;99.20;;;;;;5007522;28;20034;-72
2023/09/26 11:54:08;;;;;;;6.78;2.90;;;21.60;99.30;;;;;;4995818;28;20029;-73
2023/09/26 11:56:34;;;;;;;5.28;2.80;;;21.90;99.90;;;;;;4998192;28;20113;-72
2023/09/26 11:59:01;;;;;;;5.68;2.75;;;22.00;99.30;;;;;;5002953;28;20058;-72
2023/09/26 12:01:27;;;;;;;5.00;2.60;;;21.80;98.90;;;;;;5000584;28;20048;-72
2023/09/26 12:03:53;;;;;;;5.70;2.35;;;21.90;99.70;;;;;;5001228;28;20042;-71
2023/09/26 12:06:18;;;;;;;7.00;2.85;;;22.10;99.30;;;;;;5001705;28;20041;-71
2023/09/26 12:08:44;;;;;;;3.85;1.90;;;22.50;99.50;;;;;;5002760;28;20034;-72
2023/09/26 12:11:11;;;;;;;4.13;1.88;;;22.60;99.50;;;;;;5002671;28;20064;-71
2023/09/26 12:13:37;;;;;;;5.90;2.45;;;22.60;99.10;;;;;;5003914;28;20029;-73
2023/09/26 12:16:04;;;;;;;6.43;2.22;;;22.60;98.60;;;;;;5001843;28;20034;-72
2023/09/26 12:18:31;;;;;;;4.35;2.50;;;22.70;99.50;;;;;;5003993;28;20101;-72
2023/09/26 12:20:57;;;;;;;5.15;2.28;;;22.80;99.60;;;;;;5003458;28;20428;-73
2023/09/26 12:23:23;;;;;;;4.97;2.33;;;22.90;98.60;;;;;;5001188;28;20096;-73
2023/09/26 12:25:49;;;;;;;6.30;2.72;;;22.80;98.50;;;;;;4992948;28;20703;-72
2023/09/26 12:28:17;;;;;;;8.48;2.47;;;22.60;99.00;;;;;;5003933;28;20113;-73
2023/09/26 12:30:43;;;;;;;7.68;2.60;;;22.80;99.30;;;;;;5004129;28;20372;-72
2023/09/26 12:33:08;;;;;;;4.78;2.45;;;23.00;99.50;;;;;;5003853;28;20353;-73
2023/09/26 12:35:34;;;;;;;4.80;2.35;;;23.10;99.10;;;;;;5003539;28;20040;-73
2023/09/26 12:38:00;;;;;;;5.38;2.45;;;22.90;98.70;;;;;;5002442;28;20025;-73
2023/09/26 12:40:26;;;;;;;4.63;2.53;;;22.80;98.90;;;;;;5003831;28;20029;-74
2023/09/26 12:42:52;;;;;;;5.82;2.67;;;22.80;98.90;;;;;;5003667;28;20038;-73
2023/09/26 12:45:18;;;;;;;5.05;2.45;;;22.90;99.90;;;;;;5003986;28;20049;-73